Time;durP1;ratioP1;P1;durP2;ratioP2;P2;SDS_P1;SDS_P2;PMS_P1;PMS_P2;Temp;Humidity;BMP_temperature;BMP_pressure;BME280_temperature;BME280_humidity;BME280_pressure;Samples;Min_cycle;Max_cycle;Signal;HPM_P1;HPM_P2
2022/10/17 16:52:37;;;;;;;17.10;3.72;;;22.50;68.90;;;;;;5151519;27;20219;-71
2022/10/17 16:55:04;;;;;;;14.00;3.40;;;22.80;68.90;;;;;;5140975;23;20084;-74
2022/10/17 16:57:29;;;;;;;26.95;4.00;;;22.90;68.60;;;;;;4988038;28;20034;-78
2022/10/17 16:59:55;;;;;;;11.20;3.58;;;22.90;69.60;;;;;;4982672;28;20088;-81
2022/10/17 17:02:23;;;;;;;12.40;3.38;;;23.00;69.10;;;;;;5036747;28;20394;-80
2022/10/17 17:04:49;;;;;;;11.98;2.92;;;23.00;68.80;;;;;;5048154;28;20029;-78
2022/10/17 17:07:17;;;;;;;18.17;3.67;;;23.00;69.10;;;;;;5041866;28;20113;-77
2022/10/17 17:09:43;;;;;;;21.20;3.75;;;22.90;69.10;;;;;;5028746;28;20044;-76
2022/10/17 17:12:09;;;;;;;28.20;3.72;;;23.00;69.50;;;;;;5028138;28;20112;-75
2022/10/17 17:14:34;;;;;;;26.10;4.55;;;23.00;69.60;;;;;;5010913;28;20032;-73
2022/10/17 17:17:00;;;;;;;23.55;4.22;;;23.00;69.80;;;;;;5028260;28;20044;-74
2022/10/17 17:19:26;;;;;;;30.10;6.07;;;23.10;70.50;;;;;;5010976;28;20120;-73
2022/10/17 17:21:52;;;;;;;28.77;6.18;;;23.20;70.80;;;;;;5026833;28;20057;-72
2022/10/17 17:24:22;;;;;;;35.55;7.22;;;23.30;71.20;;;;;;5026899;28;20541;-72
2022/10/17 17:26:53;;;;;;;21.45;6.72;;;23.30;70.40;;;;;;5028232;28;20346;-72
2022/10/17 17:29:20;;;;;;;28.73;7.07;;;23.20;70.50;;;;;;5028106;28;20498;-72
2022/10/17 17:31:46;;;;;;;25.95;6.50;;;23.20;70.70;;;;;;5026867;28;20030;-72
2022/10/17 17:34:12;;;;;;;28.13;7.07;;;23.20;70.70;;;;;;5027854;28;20021;-72
2022/10/17 17:36:38;;;;;;;27.63;7.72;;;23.10;70.80;;;;;;5027943;28;20034;-72
2022/10/17 17:39:07;;;;;;;37.17;9.18;;;23.10;70.80;;;;;;5010467;28;20097;-72
2022/10/17 17:41:33;;;;;;;31.50;9.73;;;23.10;70.90;;;;;;5027895;28;20082;-72
2022/10/17 17:44:01;;;;;;;34.42;9.38;;;23.10;71.00;;;;;;5027563;28;20033;-72
2022/10/17 17:46:26;;;;;;;33.78;10.13;;;23.10;71.00;;;;;;5027824;28;20064;-72
2022/10/17 17:48:53;;;;;;;31.52;9.77;;;23.10;71.00;;;;;;5010314;28;20121;-72
2022/10/17 17:51:22;;;;;;;30.27;9.55;;;23.10;71.10;;;;;;5027716;28;20438;-72
2022/10/17 17:53:48;;;;;;;30.67;10.65;;;23.10;71.00;;;;;;4980222;28;20061;-72
2022/10/17 17:56:17;;;;;;;35.17;10.75;;;23.10;71.00;;;;;;5014032;28;20416;-73
2022/10/17 17:58:44;;;;;;;35.67;10.90;;;23.10;71.40;;;;;;4996883;28;20022;-72
2022/10/17 18:01:22;;;;;;;27.30;9.95;;;23.10;70.80;;;;;;5014484;28;20744;-73
2022/10/17 18:03:49;;;;;;;28.73;10.27;;;23.10;70.90;;;;;;4996517;28;20059;-72
2022/10/17 18:06:16;;;;;;;26.35;9.40;;;23.10;70.70;;;;;;4996892;28;20072;-73
2022/10/17 18:08:44;;;;;;;30.98;10.10;;;23.10;70.70;;;;;;4996937;28;20026;-73
2022/10/17 18:11:10;;;;;;;33.05;10.57;;;23.10;70.80;;;;;;5014197;28;20030;-72
2022/10/17 18:13:36;;;;;;;28.40;9.73;;;23.10;70.60;;;;;;5013753;28;20038;-72
2022/10/17 18:16:11;;;;;;;36.22;11.48;;;23.10;70.50;;;;;;4996484;28;20032;-72
2022/10/17 18:18:37;;;;;;;32.97;10.15;;;23.10;70.70;;;;;;4996845;28;20045;-73
2022/10/17 18:21:03;;;;;;;29.42;9.95;;;23.10;70.60;;;;;;5014048;28;20092;-72
2022/10/17 18:23:29;;;;;;;26.42;9.57;;;23.10;71.20;;;;;;4996233;28;20026;-73
2022/10/17 18:26:02;;;;;;;25.38;8.85;;;23.00;70.60;;;;;;5013787;28;20065;-73
2022/10/17 18:28:29;;;;;;;32.67;9.75;;;23.10;70.40;;;;;;5014048;28;20104;-73
2022/10/17 18:30:56;;;;;;;32.22;10.10;;;23.10;70.60;;;;;;4996495;28;20038;-73
2022/10/17 18:33:23;;;;;;;26.13;9.00;;;23.10;70.50;;;;;;5013577;28;20038;-72
2022/10/17 18:35:49;;;;;;;28.25;10.60;;;23.10;70.50;;;;;;5013729;28;20040;-73
2022/10/17 18:38:15;;;;;;;25.92;9.05;;;23.10;70.60;;;;;;5013845;28;20030;-73
2022/10/17 18:40:40;;;;;;;27.38;9.93;;;23.10;70.50;;;;;;5013353;28;20026;-73
2022/10/17 18:43:06;;;;;;;31.27;10.88;;;23.10;70.80;;;;;;5013326;28;20368;-73
2022/10/17 18:45:32;;;;;;;31.20;10.50;;;23.10;70.70;;;;;;4996325;28;20033;-73
2022/10/17 18:47:58;;;;;;;27.60;9.75;;;23.10;70.60;;;;;;5013553;28;20121;-73
2022/10/17 18:50:24;;;;;;;30.45;9.77;;;23.20;70.70;;;;;;5013522;28;20029;-73
2022/10/17 18:52:50;;;;;;;31.27;9.88;;;23.20;70.40;;;;;;5009631;28;20483;-73
2022/10/17 18:55:19;;;;;;;24.58;8.45;;;23.20;70.50;;;;;;4992334;28;20402;-72
2022/10/17 18:57:48;;;;;;;31.27;9.85;;;23.20;70.30;;;;;;5001421;28;20066;-73
2022/10/17 19:00:16;;;;;;;23.90;8.57;;;23.20;70.40;;;;;;5004179;28;20561;-73
2022/10/17 19:02:42;;;;;;;30.90;9.30;;;23.20;71.00;;;;;;4980152;28;20103;-73
2022/10/17 19:05:08;;;;;;;29.63;8.52;;;23.20;70.50;;;;;;4979060;28;20036;-74
2022/10/17 19:07:33;;;;;;;27.60;8.85;;;23.20;70.40;;;;;;4983888;28;20113;-73
2022/10/17 19:09:59;;;;;;;26.58;8.40;;;23.20;70.40;;;;;;4988618;28;20507;-73
2022/10/17 19:12:25;;;;;;;25.05;8.07;;;23.20;70.50;;;;;;4985397;28;20061;-73
2022/10/17 19:14:51;;;;;;;22.42;8.82;;;23.20;70.50;;;;;;4991891;28;20089;-73
2022/10/17 19:17:18;;;;;;;29.65;9.48;;;23.20;70.90;;;;;;4992051;28;20057;-74
2022/10/17 19:19:48;;;;;;;30.38;8.73;;;23.20;71.90;;;;;;4974897;28;20052;-73
2022/10/17 19:22:14;;;;;;;27.83;8.93;;;23.30;71.30;;;;;;4994886;28;20037;-74
2022/10/17 19:24:40;;;;;;;27.90;8.32;;;23.30;71.70;;;;;;4986742;28;20416;-74
2022/10/17 19:27:06;;;;;;;27.88;9.15;;;23.30;71.40;;;;;;4991892;28;20031;-73
2022/10/17 19:29:32;;;;;;;23.90;8.18;;;23.30;71.20;;;;;;4991326;28;20058;-73
2022/10/17 19:31:58;;;;;;;28.30;8.35;;;23.30;71.30;;;;;;4991775;28;20034;-73
2022/10/17 19:34:26;;;;;;;25.52;8.52;;;23.30;71.10;;;;;;4986130;28;20026;-73
2022/10/17 19:36:52;;;;;;;32.05;9.20;;;23.30;71.20;;;;;;4991270;28;20030;-72
2022/10/17 19:39:21;;;;;;;22.60;7.85;;;23.30;71.10;;;;;;4991494;28;20085;-72
2022/10/17 19:41:48;;;;;;;24.33;8.07;;;23.30;71.10;;;;;;4984989;28;20408;-73
2022/10/17 19:44:15;;;;;;;24.08;8.50;;;23.30;71.10;;;;;;4991432;28;20062;-73
2022/10/17 19:46:43;;;;;;;21.33;8.07;;;23.30;71.10;;;;;;4987052;28;20109;-73
2022/10/17 19:49:10;;;;;;;23.27;8.13;;;23.30;71.10;;;;;;5008207;28;20026;-73
2022/10/17 19:51:36;;;;;;;25.20;8.45;;;23.30;71.00;;;;;;5008371;28;20030;-73
2022/10/17 19:54:02;;;;;;;24.45;7.95;;;23.30;71.00;;;;;;5008531;28;20565;-74
2022/10/17 19:56:36;;;;;;;28.05;8.35;;;23.30;71.00;;;;;;4975562;28;20045;-73
2022/10/17 19:59:06;;;;;;;20.45;7.00;;;23.30;70.90;;;;;;4990876;28;20030;-73
2022/10/17 20:01:37;;;;;;;23.08;8.10;;;23.30;71.00;;;;;;4985988;28;20117;-73
2022/10/17 20:04:03;;;;;;;19.83;8.23;;;23.30;71.00;;;;;;4991241;28;20290;-72
2022/10/17 20:06:29;;;;;;;24.17;7.85;;;23.30;71.00;;;;;;4973557;28;20033;-72
2022/10/17 20:08:55;;;;;;;19.20;7.65;;;23.30;71.00;;;;;;4987536;28;20069;-72
2022/10/17 20:11:23;;;;;;;19.15;7.47;;;23.30;71.00;;;;;;5008661;28;20057;-73
2022/10/17 20:13:49;;;;;;;19.98;7.68;;;23.30;71.00;;;;;;4959371;28;20034;-73
2022/10/17 20:16:22;;;;;;;18.42;7.07;;;23.30;71.00;;;;;;4973399;28;20027;-73
2022/10/17 20:18:49;;;;;;;18.77;7.43;;;23.30;71.00;;;;;;4985936;28;20045;-73
2022/10/17 20:21:20;;;;;;;22.63;8.40;;;23.20;71.00;;;;;;4990771;28;20065;-72
2022/10/17 20:23:46;;;;;;;19.80;7.30;;;23.20;70.90;;;;;;4974280;28;20045;-72
2022/10/17 20:26:16;;;;;;;17.50;7.03;;;23.20;71.00;;;;;;4974789;28;20029;-72
2022/10/17 20:28:42;;;;;;;;;;;23.20;70.90;;;;;;4975979;28;20084;-72
2022/10/17 20:31:10;;;;;;;15.98;6.63;;;23.30;71.00;;;;;;4974152;28;19913;-73
2022/10/17 20:33:36;;;;;;;17.52;7.18;;;23.20;70.80;;;;;;4974339;28;20395;-72
2022/10/17 20:36:06;;;;;;;16.90;7.10;;;23.30;70.90;;;;;;5008041;28;20037;-72
2022/10/17 20:38:32;;;;;;;19.27;7.95;;;23.30;70.90;;;;;;4990664;28;20507;-73
2022/10/17 20:41:02;;;;;;;20.27;7.93;;;23.30;71.00;;;;;;5008127;28;20145;-72
2022/10/17 20:43:28;;;;;;;18.83;7.55;;;23.30;70.90;;;;;;4983627;28;20030;-73
2022/10/17 20:45:57;;;;;;;20.10;7.97;;;23.30;70.90;;;;;;4973525;28;20802;-72
2022/10/17 20:48:23;;;;;;;17.70;6.80;;;23.20;70.80;;;;;;4990809;28;20022;-72
2022/10/17 20:50:49;;;;;;;18.42;7.18;;;23.30;71.00;;;;;;4973644;28;20034;-72
2022/10/17 20:53:15;;;;;;;18.77;7.05;;;23.30;70.90;;;;;;4984044;28;20031;-73
2022/10/17 20:55:41;;;;;;;16.65;6.90;;;23.20;71.50;;;;;;4990518;28;20046;-73
2022/10/17 20:58:10;;;;;;;18.27;7.00;;;23.20;71.00;;;;;;4985518;28;20033;-72
2022/10/17 21:00:40;;;;;;;19.10;7.38;;;23.20;70.60;;;;;;4990566;28;20522;-72
2022/10/17 21:03:06;;;;;;;18.10;6.85;;;23.20;70.90;;;;;;4990442;28;20105;-71
2022/10/17 21:05:37;;;;;;;17.67;6.70;;;23.20;70.90;;;;;;4985484;28;20027;-72
2022/10/17 21:08:03;;;;;;;17.48;7.32;;;23.20;70.80;;;;;;4971569;28;20057;-72
2022/10/17 21:10:29;;;;;;;26.20;7.50;;;23.20;70.80;;;;;;4998620;28;20054;-72
2022/10/17 21:12:55;;;;;;;18.63;7.20;;;23.20;71.60;;;;;;4962527;28;20029;-72
2022/10/17 21:15:20;;;;;;;20.55;7.28;;;23.30;72.20;;;;;;4964390;28;20041;-72
2022/10/17 21:17:46;;;;;;;19.73;7.30;;;23.30;72.00;;;;;;5007954;28;20104;-74
2022/10/17 21:20:12;;;;;;;20.50;6.88;;;23.30;71.90;;;;;;5007263;28;20068;-73
2022/10/17 21:22:38;;;;;;;19.25;7.20;;;23.30;72.10;;;;;;4985144;28;20058;-80
2022/10/17 21:25:04;;;;;;;23.45;7.38;;;23.30;72.20;;;;;;4991647;28;20125;-79
2022/10/17 21:27:30;;;;;;;21.65;7.55;;;23.30;71.40;;;;;;4974669;28;20464;-79
2022/10/17 21:29:56;;;;;;;18.30;7.32;;;23.20;70.70;;;;;;4994930;28;20062;-78
2022/10/17 21:32:22;;;;;;;17.38;7.50;;;23.20;70.40;;;;;;4972064;28;20034;-79
2022/10/17 21:34:47;;;;;;;17.08;7.53;;;23.10;69.90;;;;;;4988453;28;20033;-79
2022/10/17 21:37:13;;;;;;;15.43;6.82;;;23.10;69.00;;;;;;5002894;28;20065;-79
2022/10/17 21:39:39;;;;;;;19.77;7.07;;;23.10;68.80;;;;;;4982920;28;20084;-79
2022/10/17 21:42:05;;;;;;;18.95;7.43;;;23.10;68.80;;;;;;5005671;28;20086;-71
2022/10/17 21:44:31;;;;;;;16.52;7.28;;;23.00;68.20;;;;;;4997651;28;20053;-72
2022/10/17 21:46:56;;;;;;;17.65;7.53;;;23.00;67.60;;;;;;4993920;28;20065;-72
2022/10/17 21:49:24;;;;;;;12.57;6.68;;;23.00;67.60;;;;;;4990031;28;20030;-72
2022/10/17 21:51:51;;;;;;;15.15;6.90;;;23.00;67.90;;;;;;4993968;28;20027;-73
2022/10/17 21:54:18;;;;;;;13.38;6.18;;;23.00;68.10;;;;;;4999489;28;20029;-72
2022/10/17 21:56:44;;;;;;;15.35;6.47;;;23.10;68.20;;;;;;4984159;28;20128;-73
2022/10/17 21:59:10;;;;;;;16.85;6.70;;;23.10;68.30;;;;;;4993823;28;20057;-74
2022/10/17 22:01:39;;;;;;;12.88;6.38;;;23.10;68.30;;;;;;4993552;28;20543;-73
2022/10/17 22:04:07;;;;;;;14.32;6.18;;;23.10;68.40;;;;;;4980912;28;20117;-73
2022/10/17 22:06:35;;;;;;;11.50;6.28;;;23.20;69.20;;;;;;5010805;28;20084;-73
2022/10/17 22:09:02;;;;;;;16.65;6.32;;;23.20;68.70;;;;;;5010737;28;20104;-73
2022/10/17 22:11:33;;;;;;;11.50;6.13;;;23.20;68.70;;;;;;5009698;28;20041;-73
2022/10/17 22:14:02;;;;;;;16.05;6.88;;;23.20;68.90;;;;;;5010631;28;20040;-73
2022/10/17 22:16:28;;;;;;;17.35;6.30;;;23.20;68.70;;;;;;5010670;28;20057;-73
2022/10/17 22:19:02;;;;;;;13.57;5.45;;;23.20;69.10;;;;;;4976061;28;20034;-73
2022/10/17 22:21:28;;;;;;;13.77;6.28;;;23.20;69.20;;;;;;5007802;28;20056;-74
2022/10/17 22:23:59;;;;;;;21.20;6.97;;;23.20;69.30;;;;;;4980474;28;20473;-73
2022/10/17 22:26:27;;;;;;;17.00;6.50;;;23.20;69.40;;;;;;4975492;28;20499;-73
2022/10/17 22:28:54;;;;;;;16.52;6.35;;;23.30;69.30;;;;;;4993453;28;20026;-73
2022/10/17 22:31:19;;;;;;;16.25;6.72;;;23.20;69.40;;;;;;4988120;28;20069;-69
2022/10/17 22:33:46;;;;;;;22.95;8.75;;;23.20;69.20;;;;;;4991895;28;20052;-73
2022/10/17 22:36:12;;;;;;;21.95;11.40;;;23.20;69.10;;;;;;4979267;28;20030;-74
2022/10/17 22:38:37;;;;;;;20.73;11.43;;;23.20;68.60;;;;;;5000834;28;20037;-74
2022/10/17 22:41:04;;;;;;;19.98;12.43;;;23.10;68.50;;;;;;4987304;28;20053;-74
2022/10/17 22:43:30;;;;;;;20.55;13.38;;;23.10;68.50;;;;;;4988459;28;20065;-73
2022/10/17 22:46:01;;;;;;;18.05;11.23;;;23.10;68.50;;;;;;4971568;28;20026;-74
2022/10/17 22:48:28;;;;;;;14.32;9.95;;;23.10;68.60;;;;;;4998894;28;20372;-71
2022/10/17 22:50:55;;;;;;;21.92;11.75;;;23.10;68.70;;;;;;4987565;28;20120;-74
2022/10/17 22:53:23;;;;;;;17.23;10.73;;;23.10;68.80;;;;;;4985382;28;20054;-73
2022/10/17 22:55:54;;;;;;;20.27;10.93;;;23.10;69.00;;;;;;5001576;28;20026;-74
2022/10/17 22:58:20;;;;;;;20.25;11.02;;;23.10;69.10;;;;;;4960846;28;20525;-73
2022/10/17 23:00:48;;;;;;;16.77;11.38;;;23.10;69.20;;;;;;4988613;28;20042;-73
2022/10/17 23:03:13;;;;;;;20.08;10.52;;;23.10;69.10;;;;;;4982385;28;20125;-73
2022/10/17 23:05:39;;;;;;;15.38;10.35;;;23.10;69.00;;;;;;5008128;28;20106;-73
2022/10/17 23:08:05;;;;;;;18.27;11.10;;;23.20;69.10;;;;;;4998343;28;20030;-72
2022/10/17 23:10:31;;;;;;;18.30;10.45;;;23.10;69.10;;;;;;5001253;28;20046;-73
2022/10/17 23:12:57;;;;;;;20.23;10.57;;;23.20;69.50;;;;;;4991875;28;20447;-74
2022/10/17 23:15:22;;;;;;;22.25;10.88;;;23.20;69.40;;;;;;4991991;28;20056;-72
2022/10/17 23:17:48;;;;;;;21.00;10.15;;;23.20;69.50;;;;;;5007054;28;20081;-73
2022/10/17 23:20:14;;;;;;;15.02;10.10;;;23.20;69.60;;;;;;5004033;28;20037;-73
2022/10/17 23:22:39;;;;;;;18.65;10.18;;;23.20;69.60;;;;;;5000570;28;20026;-74
2022/10/17 23:25:06;;;;;;;31.77;11.45;;;23.20;69.60;;;;;;5011584;28;20037;-73
2022/10/17 23:27:34;;;;;;;19.20;10.35;;;23.30;69.60;;;;;;5006527;28;20090;-72
2022/10/17 23:30:00;;;;;;;18.05;10.77;;;23.20;69.50;;;;;;5010574;28;20053;-73
2022/10/17 23:32:26;;;;;;;18.90;9.95;;;23.20;69.70;;;;;;4977601;28;20036;-74
2022/10/17 23:34:52;;;;;;;17.27;10.43;;;23.20;69.60;;;;;;5017200;28;20104;-73
2022/10/17 23:37:17;;;;;;;19.40;10.35;;;23.20;69.50;;;;;;5019770;28;20022;-73
2022/10/17 23:39:43;;;;;;;17.80;10.25;;;23.20;69.60;;;;;;4995531;28;20053;-74
2022/10/17 23:42:09;;;;;;;19.05;10.57;;;23.20;69.50;;;;;;4990866;28;20026;-74
2022/10/17 23:44:35;;;;;;;21.60;10.57;;;23.20;69.70;;;;;;4998212;28;20476;-73
2022/10/17 23:47:00;;;;;;;32.22;12.52;;;23.30;69.80;;;;;;4994078;28;20095;-73
2022/10/17 23:49:26;;;;;;;35.78;11.82;;;23.30;69.90;;;;;;5001241;28;20556;-72
2022/10/17 23:51:52;;;;;;;34.30;13.13;;;23.30;70.10;;;;;;4996353;28;20052;-73
2022/10/17 23:54:18;;;;;;;32.97;12.38;;;23.30;70.20;;;;;;4992519;28;20081;-73
2022/10/17 23:56:44;;;;;;;34.33;13.07;;;23.30;70.20;;;;;;5006278;28;20104;-73
2022/10/17 23:59:10;;;;;;;25.63;12.40;;;23.30;70.30;;;;;;5013938;28;20080;-73
